createdAt,value
2022-08-26T00:02:32.000Z,119.49858
2022-08-26T00:07:34.112Z,121.01149
2022-08-26T00:12:37.540Z,122.03468
2022-08-26T00:17:40.279Z,122.55072
2022-08-26T00:22:42.062Z,121.52161
2022-08-26T00:27:43.759Z,124.11696
2022-08-26T00:32:46.393Z,124.64516
2022-08-26T00:37:48.284Z,127.8806
2022-08-26T00:42:49.972Z,126.24852
2022-08-26T00:47:51.758Z,125.17647
2022-08-26T00:52:54.156Z,127.8806
2022-08-26T00:57:55.928Z,124.64516
2022-08-26T01:02:58.514Z,123.06977
2022-08-26T01:08:00.454Z,122.03468
2022-08-26T01:13:05.136Z,121.52161
2022-08-26T01:18:06.731Z,120.5043
2022-08-26T01:23:08.732Z,121.52161
2022-08-26T01:28:10.574Z,122.03468
2022-08-26T01:33:12.246Z,119.49858
2022-08-26T01:38:14.035Z,116.54902
2022-08-26T01:43:15.462Z,114.63712
2022-08-26T01:48:18.009Z,113.23077
2022-08-26T01:53:19.676Z,107.82979
2022-08-26T01:58:23.454Z,106.53298
2022-08-26T02:03:25.482Z,104.41667
2022-08-26T02:08:27.165Z,102.76289
2022-08-26T02:13:29.592Z,99.94937
2022-08-26T02:18:31.285Z,94.2439
2022-08-26T02:23:32.911Z,91.01671
2022-08-26T02:28:35.993Z,89.62648
2022-08-26T02:33:37.658Z,89.62648
2022-08-26T02:38:44.653Z,88.60094
2022-08-26T02:43:47.826Z,88.2623
2022-08-26T02:48:49.599Z,84.63927
2022-08-26T02:53:51.204Z,84
2022-08-26T02:58:52.992Z,85.2844
2022-08-26T03:03:55.971Z,82.42697
2022-08-26T03:08:57.853Z,80.58537
2022-08-26T03:14:00.150Z,78.20479
2022-08-26T03:19:03.800Z,81.19376
2022-08-26T03:24:05.630Z,79.98234
2022-08-26T03:29:07.417Z,82.11659
2022-08-26T03:34:09.389Z,82.42697
2022-08-26T03:39:13.050Z,84.9611
2022-08-26T03:44:15.239Z,85.2844
2022-08-26T03:49:17.276Z,86.59259
2022-08-26T03:54:19.156Z,92.07692
2022-08-26T03:59:21.018Z,89.62648
2022-08-26T04:04:24.569Z,92.07692
2022-08-26T04:09:26.578Z,91.72182
2022-08-26T04:14:28.531Z,89.62648
2022-08-26T04:19:30.383Z,88.2623
2022-08-26T04:24:32.446Z,84.63927
2022-08-26T04:29:34.507Z,81.80761
2022-08-26T04:34:36.886Z,82.73874
2022-08-26T04:39:38.747Z,84.9611
2022-08-26T04:44:40.200Z,84.63927
2022-08-26T04:49:42.063Z,83.68254
2022-08-26T04:54:43.508Z,84.31891
2022-08-26T04:59:45.318Z,84.9611
2022-08-26T05:04:48.197Z,83.36652
2022-08-26T05:09:53.675Z,88.60094
2022-08-26T05:14:56.449Z,89.28302
2022-08-26T05:19:59.220Z,92.07692
2022-08-26T05:25:01.118Z,94.61125
2022-08-26T05:30:02.894Z,93.51456
2022-08-26T05:35:08.908Z,90.31829
2022-08-26T05:40:10.920Z,90.31829
2022-08-26T05:45:12.779Z,97.23383
2022-08-26T05:50:14.623Z,98.77387
2022-08-26T05:55:16.451Z,100.34518
2022-08-26T06:00:19.915Z,105.25654
2022-08-26T06:05:22.630Z,109.14745
2022-08-26T06:10:31.580Z,106.53298
2022-08-26T06:15:35.238Z,112.30601
2022-08-26T06:20:37.275Z,114.16575
2022-08-26T06:25:38.752Z,114.16575
2022-08-26T06:30:40.602Z,123.59184
2022-08-26T06:35:42.604Z,139.55556
2022-08-26T06:40:44.267Z,138.93671
2022-08-26T06:45:45.938Z,136.5
2022-08-26T06:50:49.918Z,139.55556
2022-08-26T06:55:52.021Z,153.52381
2022-08-26T07:00:54.005Z,161.66784
2022-08-26T07:05:56.115Z,167.18841
2022-08-26T07:10:59.847Z,179.1145
2022-08-26T07:16:03.128Z,176.45283
2022-08-26T07:21:06.291Z,173.85075
2022-08-26T07:26:07.984Z,172.14815
2022-08-26T07:31:09.888Z,190.4
2022-08-26T07:36:11.916Z,184.625
2022-08-26T07:41:14.047Z,190.4
2022-08-26T07:46:16.532Z,198.54545
2022-08-26T07:51:18.560Z,182.75969
2022-08-26T07:56:21.743Z,184.625
2022-08-26T08:01:24.044Z,186.51969
2022-08-26T08:06:27.053Z,186.51969
2022-08-26T08:11:29.529Z,200.66667
2022-08-26T08:16:33.351Z,180.01533
2022-08-26T08:21:36.836Z,196.45902
2022-08-26T08:26:38.623Z,209.51724
2022-08-26T08:31:56.983Z,225.27854
2022-08-26T08:36:59.846Z,224
2022-08-26T08:42:01.652Z,234.56604
2022-08-26T08:47:04.062Z,300.06936
2022-08-26T08:52:05.695Z,338.87179
2022-08-26T08:57:07.377Z,336.35669
2022-08-26T09:02:09.011Z,387.16547
2022-08-26T09:07:12.404Z,560
2022-08-26T09:12:13.957Z,668.70588
2022-08-26T09:17:15.435Z,891.69231
2022-08-26T09:22:18.141Z,1201.14286
2022-08-26T09:27:20.158Z,1523.48718
2022-08-26T09:32:22.608Z,2408
2022-08-26T09:37:24.499Z,2068.13793
2022-08-26T09:42:25.971Z,1484
2022-08-26T09:47:27.439Z,1755.76471
2022-08-26T09:52:29.907Z,1446.43902
2022-08-26T09:57:31.405Z,1523.48718
2022-08-26T10:02:34.592Z,1655.11111
2022-08-26T10:07:37.001Z,1931.09677
2022-08-26T10:12:38.455Z,2622.26087
2022-08-26T10:17:40.345Z,3024
2022-08-26T10:22:42.008Z,2877.33333
2022-08-26T10:27:52.668Z,1931.09677
2022-08-26T10:32:55.074Z,2068.13793
2022-08-26T10:37:57.145Z,2068.13793
2022-08-26T10:42:59.052Z,2144
2022-08-26T10:48:00.835Z,2510.66667
2022-08-26T10:53:02.947Z,3024
2022-08-26T10:58:06.497Z,3024
2022-08-26T11:03:22.518Z,2744
2022-08-26T11:08:25.657Z,2622.26087
2022-08-26T11:13:27.511Z,2744
2022-08-26T11:18:29.432Z,2510.66667
2022-08-26T11:23:31.388Z,2622.26087
2022-08-26T11:28:33.135Z,3366.22222
2022-08-26T11:33:35.134Z,3366.22222
2022-08-26T11:38:36.999Z,3024
2022-08-26T11:43:38.882Z,3024
2022-08-26T11:48:40.758Z,3186.10526
2022-08-26T11:53:42.562Z,4050.66667
2022-08-26T11:58:44.495Z,4682.46154
2022-08-26T12:03:45.982Z,5544
2022-08-26T12:08:48.778Z,3794
2022-08-26T12:13:50.243Z,2622.26087
2022-08-26T12:18:53.462Z,3794
2022-08-26T12:23:56.255Z,4682.46154
2022-08-26T12:28:58.168Z,4050.66667
2022-08-26T12:33:59.958Z,3794
2022-08-26T12:39:02.047Z,4682.46154
2022-08-26T12:44:03.548Z,4050.66667
2022-08-26T12:49:05.034Z,3567.52941
2022-08-26T12:54:06.695Z,2877.33333
2022-08-26T12:59:08.853Z,3366.22222
2022-08-26T13:04:12.689Z,4344
2022-08-26T13:09:15.178Z,4344
2022-08-26T13:14:23.833Z,4682.46154
2022-08-26T13:19:26.236Z,4682.46154
2022-08-26T13:24:28.241Z,4050.66667
2022-08-26T13:29:29.702Z,6788.44444
2022-08-26T13:34:32.359Z,7644
2022-08-26T13:39:34.492Z,5077.33333
2022-08-26T13:44:36.045Z,7644
2022-08-26T13:49:37.681Z,8744
2022-08-26T13:54:39.346Z,7644
2022-08-26T13:59:40.847Z,6788.44444
2022-08-26T14:04:42.338Z,6788.44444
2022-08-26T14:09:44.196Z,6104
2022-08-26T14:14:45.665Z,6788.44444
2022-08-26T14:19:47.700Z,4344
2022-08-26T14:24:49.520Z,3794
2022-08-26T14:29:51.295Z,5077.33333
2022-08-26T14:34:53.042Z,3794
2022-08-26T14:39:55.202Z,1608.86486
2022-08-26T14:44:57.063Z,2408
2022-08-26T14:49:58.853Z,3186.10526
2022-08-26T14:55:00.558Z,1608.86486
2022-08-26T15:00:02.512Z,1565.05263
2022-08-26T15:05:04.635Z,1344
2022-08-26T15:10:06.745Z,1344
2022-08-26T15:15:08.652Z,1344
2022-08-26T15:20:10.690Z,1176
2022-08-26T15:25:12.642Z,1044
2022-08-26T15:30:14.425Z,754.52632
2022-08-26T15:35:16.183Z,592.42105
2022-08-26T15:40:18.561Z,514.37037
2022-08-26T15:45:26.188Z,519.70093
2022-08-26T15:50:28.347Z,421.51938
2022-08-26T15:55:30.244Z,269.92593
2022-08-26T16:00:32.097Z,302.13953
2022-08-26T16:05:33.912Z,414.22901
2022-08-26T16:10:35.937Z,377.80282
2022-08-26T16:15:37.837Z,341.41935
2022-08-26T16:20:39.628Z,276.97297
2022-08-26T16:25:52.086Z,371.77778
2022-08-26T16:30:53.816Z,377.80282
2022-08-26T16:35:55.676Z,346.61438
2022-08-26T16:40:57.740Z,368.82759
2022-08-26T16:45:59.578Z,284.33149
2022-08-26T16:51:01.556Z,351.94702
2022-08-26T16:56:03.705Z,360.21622
2022-08-26T17:01:05.580Z,363.04762
2022-08-26T17:06:07.457Z,319.60976
2022-08-26T17:11:09.413Z,286.22222
2022-08-26T17:16:11.300Z,250.46766
2022-08-26T17:21:13.098Z,245.96078
2022-08-26T17:26:15.042Z,258.28571
2022-08-26T17:31:16.898Z,304.23392
2022-08-26T17:36:18.824Z,310.66667
2022-08-26T17:41:21.019Z,298.02299
2022-08-26T17:46:22.793Z,300.06936
2022-08-26T17:51:24.684Z,390.37681
2022-08-26T17:56:26.475Z,380.87943
2022-08-26T18:01:28.299Z,377.80282
2022-08-26T18:06:30.014Z,344
2022-08-26T18:11:32.271Z,326.6087
2022-08-26T18:16:34.083Z,310.66667
2022-08-26T18:21:35.938Z,377.80282
2022-08-26T18:26:37.812Z,509.13761
2022-08-26T18:31:39.591Z,714
2022-08-26T18:36:41.367Z,970.66667
2022-08-26T18:41:43.348Z,906.5
2022-08-26T18:46:44.789Z,836.75362
2022-08-26T18:51:46.233Z,921.77778
2022-08-26T18:56:47.928Z,953.83607
2022-08-26T19:01:49.502Z,592.42105
2022-08-26T19:06:52.326Z,403.70149
2022-08-26T19:11:54.183Z,377.80282
2022-08-26T19:16:55.727Z,368.82759
2022-08-26T19:21:57.957Z,380.87943
2022-08-26T19:26:59.599Z,400.2963
2022-08-26T19:32:01.287Z,432.88889
2022-08-26T19:37:02.944Z,436.8
2022-08-26T19:42:04.772Z,440.77419
2022-08-26T19:47:06.448Z,425.25
2022-08-26T19:52:07.939Z,407.15789
2022-08-26T19:57:09.706Z,396.94118
2022-08-26T20:02:13.384Z,363.04762
2022-08-26T20:07:18.777Z,338.87179
2022-08-26T20:12:21.217Z,288.13408
2022-08-26T20:17:22.662Z,273.41176
2022-08-26T20:22:24.427Z,269.92593
2022-08-26T20:27:26.287Z,244.4878
2022-08-26T20:32:39.703Z,250.46766
2022-08-26T20:37:41.668Z,250.46766
2022-08-26T20:42:43.656Z,276.97297
2022-08-26T20:47:45.089Z,234.56604
2022-08-26T20:52:46.779Z,259.89744
2022-08-26T20:57:48.611Z,231.85047
2022-08-26T21:02:50.199Z,234.56604
2022-08-26T21:07:52.085Z,234.56604
2022-08-26T21:12:54.784Z,237.33333
2022-08-26T21:17:56.668Z,234.56604
2022-08-26T21:22:58.386Z,231.85047
2022-08-26T21:28:00.165Z,230.51163
2022-08-26T21:33:02.054Z,215.36564
2022-08-26T21:38:03.829Z,217.77778
2022-08-26T21:43:05.915Z,220.23318
2022-08-26T21:48:07.563Z,227.87097
2022-08-26T21:53:09.560Z,221.47748
2022-08-26T21:58:11.451Z,206.12766
2022-08-26T22:03:13.347Z,205.01695
2022-08-26T22:08:15.110Z,203.91561
2022-08-26T22:13:17.076Z,197.49794
2022-08-26T22:18:18.808Z,205.01695
2022-08-26T22:23:20.593Z,196.45902
2022-08-26T22:28:22.344Z,201.74059
2022-08-26T22:33:24.220Z,207.24786
2022-08-26T22:38:25.997Z,238.73684
2022-08-26T22:43:28.219Z,255.11111
2022-08-26T22:48:29.984Z,258.28571
2022-08-26T22:53:32.743Z,275.1828
2022-08-26T22:58:37.890Z,266.51309
2022-08-26T23:03:40.121Z,256.69036
2022-08-26T23:08:41.954Z,255.11111
2022-08-26T23:13:44.064Z,261.52577
2022-08-26T23:18:45.669Z,237.33333
2022-08-26T23:23:47.131Z,243.02913
2022-08-26T23:28:48.936Z,235.94313
2022-08-26T23:33:50.415Z,266.51309
2022-08-26T23:38:52.932Z,245.96078
2022-08-26T23:43:55.343Z,231.85047
2022-08-26T23:48:57.087Z,231.85047
2022-08-26T23:53:58.545Z,235.94313
2022-08-26T23:59:00.217Z,241.58454
